sensor_id;sensor_type;location;lat;lon;timestamp;pressure;altitude;pressure_sealevel;temperature;humidity
12951;BME280;6540;50.858;7.232;2023-04-02T00:02:45;51735.53;;;-142.34;29.41
12951;BME280;6540;50.858;7.232;2023-04-02T00:07:58;51777.88;;;-142.34;30.25
12951;BME280;6540;50.858;7.232;2023-04-02T00:13:03;51725.44;;;-142.34;29.24
12951;BME280;6540;50.858;7.232;2023-04-02T00:15:30;51787.97;;;-142.34;29.87
12951;BME280;6540;50.858;7.232;2023-04-02T00:17:56;51767.81;;;-142.34;29.17
12951;BME280;6540;50.858;7.232;2023-04-02T00:20:23;51792.00;;;-142.34;29.65
12951;BME280;6540;50.858;7.232;2023-04-02T00:22:49;51790.00;;;-142.34;29.38
12951;BME280;6540;50.858;7.232;2023-04-02T00:25:15;51802.09;;;-142.34;29.51
12951;BME280;6540;50.858;7.232;2023-04-02T00:27:41;51781.91;;;-142.34;30.63
12951;BME280;6540;50.858;7.232;2023-04-02T00:30:11;51820.25;;;-142.34;30.21
12951;BME280;6540;50.858;7.232;2023-04-02T00:32:37;51783.94;;;-142.34;29.82
12951;BME280;6540;50.858;7.232;2023-04-02T00:35:04;51757.72;;;-142.34;30.07
12951;BME280;6540;50.858;7.232;2023-04-02T00:37:34;51810.16;;;-142.34;30.09
12951;BME280;6540;50.858;7.232;2023-04-02T00:40:18;51790.00;;;-142.34;30.60
12951;BME280;6540;50.858;7.232;2023-04-02T00:42:45;51826.31;;;-142.34;30.08
12951;BME280;6540;50.858;7.232;2023-04-02T00:45:18;51787.97;;;-142.34;29.80
12951;BME280;6540;50.858;7.232;2023-04-02T00:47:46;51792.00;;;-142.34;30.00
12951;BME280;6540;50.858;7.232;2023-04-02T00:52:40;51785.94;;;-142.34;29.80
12951;BME280;6540;50.858;7.232;2023-04-02T00:55:14;51790.00;;;-142.34;29.37
12951;BME280;6540;50.858;7.232;2023-04-02T00:57:41;51787.97;;;-142.34;29.62
12951;BME280;6540;50.858;7.232;2023-04-02T01:02:40;51773.84;;;-142.34;30.43
12951;BME280;6540;50.858;7.232;2023-04-02T01:16:12;51790.00;;;-142.34;29.80
12951;BME280;6540;50.858;7.232;2023-04-02T01:18:48;51802.09;;;-142.34;29.85
12951;BME280;6540;50.858;7.232;2023-04-02T01:21:37;51775.88;;;-142.34;30.29
12951;BME280;6540;50.858;7.232;2023-04-02T01:24:11;51785.94;;;-142.34;29.90
12951;BME280;6540;50.858;7.232;2023-04-02T01:26:53;51777.88;;;-142.34;29.90
12951;BME280;6540;50.858;7.232;2023-04-02T01:29:30;51773.84;;;-142.34;30.02
12951;BME280;6540;50.858;7.232;2023-04-02T01:32:06;51769.81;;;-142.34;29.91
12951;BME280;6540;50.858;7.232;2023-04-02T01:34:33;51781.91;;;-142.34;30.50
12951;BME280;6540;50.858;7.232;2023-04-02T01:40:12;51787.97;;;-142.34;29.30
12951;BME280;6540;50.858;7.232;2023-04-02T01:45:13;51787.97;;;-142.34;29.07
12951;BME280;6540;50.858;7.232;2023-04-02T01:47:39;51781.91;;;-142.34;29.39
12951;BME280;6540;50.858;7.232;2023-04-02T01:52:41;51777.88;;;-142.34;29.76
12951;BME280;6540;50.858;7.232;2023-04-02T01:55:09;51767.81;;;-142.34;29.33
12951;BME280;6540;50.858;7.232;2023-04-02T01:57:39;51775.88;;;-142.34;29.38
12951;BME280;6540;50.858;7.232;2023-04-02T02:00:06;51761.75;;;-142.34;29.61
12951;BME280;6540;50.858;7.232;2023-04-02T02:02:36;51806.13;;;-142.34;29.75
12951;BME280;6540;50.858;7.232;2023-04-02T02:05:03;51794.03;;;-142.34;29.64
12951;BME280;6540;50.858;7.232;2023-04-02T02:07:28;51798.06;;;-142.34;29.80
12951;BME280;6540;50.858;7.232;2023-04-02T02:09:54;51781.91;;;-142.34;29.38
12951;BME280;6540;50.858;7.232;2023-04-02T02:12:20;51822.25;;;-142.34;30.03
12951;BME280;6540;50.858;7.232;2023-04-02T02:14:48;51794.03;;;-142.34;30.08
12951;BME280;6540;50.858;7.232;2023-04-02T02:17:16;51769.81;;;-142.34;30.30
12951;BME280;6540;50.858;7.232;2023-04-02T02:19:48;51777.88;;;-142.34;30.05
12951;BME280;6540;50.858;7.232;2023-04-02T02:22:28;51787.97;;;-142.34;29.55
12951;BME280;6540;50.858;7.232;2023-04-02T02:24:56;51785.94;;;-142.34;30.15
12951;BME280;6540;50.858;7.232;2023-04-02T02:30:13;51787.97;;;-142.34;30.33
12951;BME280;6540;50.858;7.232;2023-04-02T02:32:44;51806.13;;;-142.34;30.09
12951;BME280;6540;50.858;7.232;2023-04-02T02:35:31;51802.09;;;-142.34;30.11
12951;BME280;6540;50.858;7.232;2023-04-02T02:40:49;51779.91;;;-142.34;29.48
12951;BME280;6540;50.858;7.232;2023-04-02T02:43:17;51822.25;;;-142.34;30.78
12951;BME280;6540;50.858;7.232;2023-04-02T02:45:43;51792.00;;;-142.34;31.59
12951;BME280;6540;50.858;7.232;2023-04-02T02:48:13;51834.38;;;-142.34;30.60
12951;BME280;6540;50.858;7.232;2023-04-02T02:50:40;51806.13;;;-142.34;30.11
12951;BME280;6540;50.858;7.232;2023-04-02T02:53:33;51781.91;;;-142.34;29.93
12951;BME280;6540;50.858;7.232;2023-04-02T02:56:11;51787.97;;;-142.34;31.67
12951;BME280;6540;50.858;7.232;2023-04-02T02:58:36;51810.16;;;-142.34;30.34
12951;BME280;6540;50.858;7.232;2023-04-02T03:01:03;51814.19;;;-142.34;30.95
12951;BME280;6540;50.858;7.232;2023-04-02T03:03:31;51824.28;;;-142.34;30.40
12951;BME280;6540;50.858;7.232;2023-04-02T03:06:09;51802.09;;;-142.34;30.58
12951;BME280;6540;50.858;7.232;2023-04-02T03:14:27;51826.31;;;-142.34;31.44
12951;BME280;6540;50.858;7.232;2023-04-02T03:17:00;51802.09;;;-142.34;31.33
12951;BME280;6540;50.858;7.232;2023-04-02T03:19:43;51838.41;;;-142.34;31.09
12951;BME280;6540;50.858;7.232;2023-04-02T03:22:34;51830.34;;;-142.34;30.36
12951;BME280;6540;50.858;7.232;2023-04-02T03:27:33;51838.41;;;-142.34;29.63
12951;BME280;6540;50.858;7.232;2023-04-02T03:32:50;51854.53;;;-142.34;31.39
12951;BME280;6540;50.858;7.232;2023-04-02T03:38:10;51866.66;;;-142.34;30.53
12951;BME280;6540;50.858;7.232;2023-04-02T03:40:41;51818.22;;;-142.34;30.95
12951;BME280;6540;50.858;7.232;2023-04-02T03:43:20;51840.41;;;-142.34;30.27
12951;BME280;6540;50.858;7.232;2023-04-02T03:45:51;51830.34;;;-142.34;33.08
12951;BME280;6540;50.858;7.232;2023-04-02T03:48:42;51882.78;;;-142.34;30.98
12951;BME280;6540;50.858;7.232;2023-04-02T03:51:35;51866.66;;;-142.34;31.84
12951;BME280;6540;50.858;7.232;2023-04-02T03:54:03;51858.56;;;-142.34;32.62
12951;BME280;6540;50.858;7.232;2023-04-02T03:56:31;51838.41;;;-142.34;31.78
12951;BME280;6540;50.858;7.232;2023-04-02T03:59:33;51850.50;;;-142.34;31.16
12951;BME280;6540;50.858;7.232;2023-04-02T04:02:11;51866.66;;;-142.34;31.04
12951;BME280;6540;50.858;7.232;2023-04-02T04:04:39;51868.66;;;-142.34;31.91
12951;BME280;6540;50.858;7.232;2023-04-02T04:07:09;51842.44;;;-142.34;30.82
12951;BME280;6540;50.858;7.232;2023-04-02T04:09:36;51854.53;;;-142.34;31.28
12951;BME280;6540;50.858;7.232;2023-04-02T04:12:27;51836.38;;;-142.34;30.36
12951;BME280;6540;50.858;7.232;2023-04-02T04:20:41;51874.72;;;-142.34;29.57
12951;BME280;6540;50.858;7.232;2023-04-02T04:23:25;51844.47;;;-142.34;31.32
12951;BME280;6540;50.858;7.232;2023-04-02T04:26:28;51816.22;;;-142.34;30.67
12951;BME280;6540;50.858;7.232;2023-04-02T04:29:31;51866.66;;;-142.34;32.64
12951;BME280;6540;50.858;7.232;2023-04-02T04:32:09;51830.34;;;-142.34;31.09
12951;BME280;6540;50.858;7.232;2023-04-02T04:34:46;51911.03;;;-142.34;30.19
12951;BME280;6540;50.858;7.232;2023-04-02T04:37:27;51866.66;;;-142.34;30.38
12951;BME280;6540;50.858;7.232;2023-04-02T04:42:43;51866.66;;;-142.34;30.81
12951;BME280;6540;50.858;7.232;2023-04-02T04:45:29;51872.69;;;-142.34;29.95
12951;BME280;6540;50.858;7.232;2023-04-02T04:51:06;51862.63;;;-142.34;30.24
12951;BME280;6540;50.858;7.232;2023-04-02T04:53:44;51872.69;;;-142.34;30.04
12951;BME280;6540;50.858;7.232;2023-04-02T04:56:10;51858.56;;;-142.34;30.86
12951;BME280;6540;50.858;7.232;2023-04-02T04:58:46;51846.47;;;-142.34;31.99
12951;BME280;6540;50.858;7.232;2023-04-02T05:01:17;51900.94;;;-142.34;31.26
12951;BME280;6540;50.858;7.232;2023-04-02T05:03:45;51907.00;;;-142.34;31.06
12951;BME280;6540;50.858;7.232;2023-04-02T05:06:41;51882.78;;;-142.34;30.72
12951;BME280;6540;50.858;7.232;2023-04-02T05:09:24;51900.94;;;-142.34;31.18
12951;BME280;6540;50.858;7.232;2023-04-02T05:14:41;51882.78;;;-142.34;30.57
12951;BME280;6540;50.858;7.232;2023-04-02T05:19:56;51898.94;;;-142.34;31.40
12951;BME280;6540;50.858;7.232;2023-04-02T05:22:37;51858.56;;;-142.34;31.84
12951;BME280;6540;50.858;7.232;2023-04-02T05:25:29;51860.59;;;-142.34;31.66
12951;BME280;6540;50.858;7.232;2023-04-02T05:28:10;51858.56;;;-142.34;31.06
12951;BME280;6540;50.858;7.232;2023-04-02T05:30:46;51868.66;;;-142.34;33.08
12951;BME280;6540;50.858;7.232;2023-04-02T05:33:18;51876.72;;;-142.34;31.77
12951;BME280;6540;50.858;7.232;2023-04-02T05:35:47;51915.06;;;-142.34;32.27
12951;BME280;6540;50.858;7.232;2023-04-02T05:38:20;51894.88;;;-142.34;31.95
12951;BME280;6540;50.858;7.232;2023-04-02T05:40:51;51868.66;;;-142.34;31.62
12951;BME280;6540;50.858;7.232;2023-04-02T05:43:19;51872.69;;;-142.34;31.10
12951;BME280;6540;50.858;7.232;2023-04-02T05:45:54;51858.56;;;-142.34;30.87
12951;BME280;6540;50.858;7.232;2023-04-02T05:48:26;51864.63;;;-142.34;31.47
12951;BME280;6540;50.858;7.232;2023-04-02T05:50:55;51882.78;;;-142.34;32.79
12951;BME280;6540;50.858;7.232;2023-04-02T05:53:27;51870.69;;;-142.34;31.21
12951;BME280;6540;50.858;7.232;2023-04-02T05:58:30;51878.75;;;-142.34;30.90
12951;BME280;6540;50.858;7.232;2023-04-02T06:01:20;51898.94;;;-142.34;31.23
12951;BME280;6540;50.858;7.232;2023-04-02T06:03:56;51878.75;;;-142.34;30.53
12951;BME280;6540;50.858;7.232;2023-04-02T06:06:42;51902.97;;;-142.34;31.26
12951;BME280;6540;50.858;7.232;2023-04-02T06:09:35;51854.53;;;-142.34;29.41
12951;BME280;6540;50.858;7.232;2023-04-02T06:14:48;51907.00;;;-142.34;30.62
12951;BME280;6540;50.858;7.232;2023-04-02T06:17:18;51850.50;;;-142.34;32.93
12951;BME280;6540;50.858;7.232;2023-04-02T06:19:44;51852.53;;;-142.34;31.26
12951;BME280;6540;50.858;7.232;2023-04-02T06:22:23;51856.56;;;-142.34;31.78
12951;BME280;6540;50.858;7.232;2023-04-02T06:24:56;51888.84;;;-142.34;32.03
12951;BME280;6540;50.858;7.232;2023-04-02T06:27:26;51876.72;;;-142.34;31.88
12951;BME280;6540;50.858;7.232;2023-04-02T06:29:56;51866.66;;;-142.34;30.95
12951;BME280;6540;50.858;7.232;2023-04-02T06:32:23;51900.94;;;-142.34;31.63
12951;BME280;6540;50.858;7.232;2023-04-02T06:34:51;51913.03;;;-142.34;30.43
12951;BME280;6540;50.858;7.232;2023-04-02T06:37:20;51890.84;;;-142.34;30.24
12951;BME280;6540;50.858;7.232;2023-04-02T06:39:47;51890.84;;;-142.34;31.76
12951;BME280;6540;50.858;7.232;2023-04-02T06:42:18;51880.78;;;-142.34;29.26
12951;BME280;6540;50.858;7.232;2023-04-02T06:44:44;51892.88;;;-142.34;31.91
12951;BME280;6540;50.858;7.232;2023-04-02T06:47:27;51864.63;;;-142.34;30.56
12951;BME280;6540;50.858;7.232;2023-04-02T06:50:12;51894.88;;;-142.34;30.76
12951;BME280;6540;50.858;7.232;2023-04-02T06:52:50;51894.88;;;-142.34;29.93
12951;BME280;6540;50.858;7.232;2023-04-02T06:55:27;51842.44;;;-142.34;30.26
12951;BME280;6540;50.858;7.232;2023-04-02T06:57:54;51902.97;;;-142.34;30.82
12951;BME280;6540;50.858;7.232;2023-04-02T07:00:39;51907.00;;;-142.34;30.22
12951;BME280;6540;50.858;7.232;2023-04-02T07:03:07;51890.84;;;-142.34;30.13
12951;BME280;6540;50.858;7.232;2023-04-02T07:05:37;51874.72;;;-142.34;28.77
12951;BME280;6540;50.858;7.232;2023-04-02T07:08:02;51882.78;;;-142.34;31.46
12951;BME280;6540;50.858;7.232;2023-04-02T07:10:28;51886.81;;;-142.34;29.14
12951;BME280;6540;50.858;7.232;2023-04-02T07:12:53;51878.75;;;-142.34;30.29
12951;BME280;6540;50.858;7.232;2023-04-02T07:15:19;51878.75;;;-142.34;30.24
12951;BME280;6540;50.858;7.232;2023-04-02T07:17:45;51902.97;;;-142.34;31.55
12951;BME280;6540;50.858;7.232;2023-04-02T07:20:31;51862.63;;;-142.34;30.31
12951;BME280;6540;50.858;7.232;2023-04-02T07:22:57;51894.88;;;-142.34;30.39
12951;BME280;6540;50.858;7.232;2023-04-02T07:25:23;51874.72;;;-142.34;29.48
12951;BME280;6540;50.858;7.232;2023-04-02T07:27:49;51852.53;;;-142.34;30.69
12951;BME280;6540;50.858;7.232;2023-04-02T07:30:15;51866.66;;;-142.34;31.35
12951;BME280;6540;50.858;7.232;2023-04-02T07:32:41;51902.97;;;-142.34;30.56
12951;BME280;6540;50.858;7.232;2023-04-02T07:35:08;51919.09;;;-142.34;30.21
12951;BME280;6540;50.858;7.232;2023-04-02T07:37:35;51872.69;;;-142.34;29.76
12951;BME280;6540;50.858;7.232;2023-04-02T07:40:00;51882.78;;;-142.34;30.60
12951;BME280;6540;50.858;7.232;2023-04-02T07:42:25;51890.84;;;-142.34;30.92
12951;BME280;6540;50.858;7.232;2023-04-02T07:44:51;51874.72;;;-142.34;30.86
12951;BME280;6540;50.858;7.232;2023-04-02T07:47:16;51866.66;;;-142.34;31.33
12951;BME280;6540;50.858;7.232;2023-04-02T07:49:41;51911.03;;;-142.34;30.92
12951;BME280;6540;50.858;7.232;2023-04-02T07:52:07;51894.88;;;-142.34;29.80
12951;BME280;6540;50.858;7.232;2023-04-02T07:54:32;51902.97;;;-142.34;30.99
12951;BME280;6540;50.858;7.232;2023-04-02T07:56:58;51866.66;;;-142.34;30.82
12951;BME280;6540;50.858;7.232;2023-04-02T07:59:23;51907.00;;;-142.34;30.16
12951;BME280;6540;50.858;7.232;2023-04-02T08:01:50;51882.78;;;-142.34;30.47
12951;BME280;6540;50.858;7.232;2023-04-02T08:04:20;51860.59;;;-142.34;31.45
12951;BME280;6540;50.858;7.232;2023-04-02T08:06:47;51886.81;;;-142.34;30.14
12951;BME280;6540;50.858;7.232;2023-04-02T08:09:14;51886.81;;;-142.34;29.42
12951;BME280;6540;50.858;7.232;2023-04-02T08:11:39;51884.81;;;-142.34;30.13
12951;BME280;6540;50.858;7.232;2023-04-02T08:14:09;51915.06;;;-142.34;29.89
12951;BME280;6540;50.858;7.232;2023-04-02T08:17:04;51882.78;;;-142.34;28.93
12951;BME280;6540;50.858;7.232;2023-04-02T08:19:30;51902.97;;;-142.34;29.38
12951;BME280;6540;50.858;7.232;2023-04-02T08:21:55;51850.50;;;-142.34;30.17
12951;BME280;6540;50.858;7.232;2023-04-02T08:24:21;51834.38;;;-142.34;30.89
12951;BME280;6540;50.858;7.232;2023-04-02T08:26:48;51917.06;;;-142.34;30.93
12951;BME280;6540;50.858;7.232;2023-04-02T08:29:14;51858.56;;;-142.34;31.98
12951;BME280;6540;50.858;7.232;2023-04-02T08:31:39;51882.78;;;-142.34;32.88
12951;BME280;6540;50.858;7.232;2023-04-02T08:34:05;51898.94;;;-142.34;31.76
12951;BME280;6540;50.858;7.232;2023-04-02T08:36:35;51866.66;;;-142.34;32.28
12951;BME280;6540;50.858;7.232;2023-04-02T08:39:03;51876.72;;;-142.34;31.30
12951;BME280;6540;50.858;7.232;2023-04-02T08:41:54;51866.66;;;-142.34;30.39
12951;BME280;6540;50.858;7.232;2023-04-02T08:44:44;51902.97;;;-142.34;29.62
12951;BME280;6540;50.858;7.232;2023-04-02T08:47:16;51858.56;;;-142.34;30.05
12951;BME280;6540;50.858;7.232;2023-04-02T08:49:54;51890.84;;;-142.34;31.19
12951;BME280;6540;50.858;7.232;2023-04-02T08:52:30;51878.75;;;-142.34;29.09
12951;BME280;6540;50.858;7.232;2023-04-02T08:54:56;51852.53;;;-142.34;30.50
12951;BME280;6540;50.858;7.232;2023-04-02T09:00:22;51874.72;;;-142.34;29.87
12951;BME280;6540;50.858;7.232;2023-04-02T09:03:20;51878.75;;;-142.34;30.24
12951;BME280;6540;50.858;7.232;2023-04-02T09:05:52;51892.88;;;-142.34;30.03
12951;BME280;6540;50.858;7.232;2023-04-02T09:08:20;51894.88;;;-142.34;29.40
12951;BME280;6540;50.858;7.232;2023-04-02T09:11:06;51870.69;;;-142.34;30.96
12951;BME280;6540;50.858;7.232;2023-04-02T09:13:34;51882.78;;;-142.34;30.32
12951;BME280;6540;50.858;7.232;2023-04-02T09:16:11;51870.69;;;-142.34;29.86
12951;BME280;6540;50.858;7.232;2023-04-02T09:18:37;51870.69;;;-142.34;29.50
12951;BME280;6540;50.858;7.232;2023-04-02T09:23:43;51878.75;;;-142.34;29.82
12951;BME280;6540;50.858;7.232;2023-04-02T09:26:20;51892.88;;;-142.34;29.18
12951;BME280;6540;50.858;7.232;2023-04-02T09:28:49;51874.72;;;-142.34;31.40
12951;BME280;6540;50.858;7.232;2023-04-02T09:31:21;51894.88;;;-142.34;30.87
12951;BME280;6540;50.858;7.232;2023-04-02T09:33:50;51927.16;;;-142.34;30.24
12951;BME280;6540;50.858;7.232;2023-04-02T09:36:36;51842.44;;;-142.34;28.68
12951;BME280;6540;50.858;7.232;2023-04-02T09:39:15;51866.66;;;-142.34;29.62
12951;BME280;6540;50.858;7.232;2023-04-02T09:41:42;51896.91;;;-142.34;29.15
12951;BME280;6540;50.858;7.232;2023-04-02T09:44:22;51896.91;;;-142.34;31.39
12951;BME280;6540;50.858;7.232;2023-04-02T09:49:29;51892.88;;;-142.34;30.00
12951;BME280;6540;50.858;7.232;2023-04-02T09:52:19;51882.78;;;-142.34;30.41
12951;BME280;6540;50.858;7.232;2023-04-02T09:54:46;51886.81;;;-142.34;29.36
12951;BME280;6540;50.858;7.232;2023-04-02T09:57:30;51890.84;;;-142.34;29.21
12951;BME280;6540;50.858;7.232;2023-04-02T10:02:41;51874.72;;;-142.34;30.24
12951;BME280;6540;50.858;7.232;2023-04-02T10:05:17;51862.63;;;-142.34;29.36
12951;BME280;6540;50.858;7.232;2023-04-02T10:07:46;51868.66;;;-142.34;28.55
12951;BME280;6540;50.858;7.232;2023-04-02T10:10:29;51856.56;;;-142.34;28.66
12951;BME280;6540;50.858;7.232;2023-04-02T10:13:02;51890.84;;;-142.34;29.76
12951;BME280;6540;50.858;7.232;2023-04-02T10:15:33;51882.78;;;-142.34;30.16
12951;BME280;6540;50.858;7.232;2023-04-02T10:18:13;51854.53;;;-142.34;28.95
12951;BME280;6540;50.858;7.232;2023-04-02T10:20:42;51886.81;;;-142.34;29.39
12951;BME280;6540;50.858;7.232;2023-04-02T10:23:16;51878.75;;;-142.34;29.99
12951;BME280;6540;50.858;7.232;2023-04-02T10:25:53;51866.66;;;-142.34;29.51
12951;BME280;6540;50.858;7.232;2023-04-02T10:28:36;51866.66;;;-142.34;31.17
12951;BME280;6540;50.858;7.232;2023-04-02T10:31:20;51878.75;;;-142.34;29.68
12951;BME280;6540;50.858;7.232;2023-04-02T10:33:50;51874.72;;;-142.34;29.18
12951;BME280;6540;50.858;7.232;2023-04-02T10:36:27;51866.66;;;-142.34;28.31
12951;BME280;6540;50.858;7.232;2023-04-02T10:39:23;51864.63;;;-142.34;28.56
12951;BME280;6540;50.858;7.232;2023-04-02T10:44:35;51868.66;;;-142.34;29.19
12951;BME280;6540;50.858;7.232;2023-04-02T10:55:32;51898.94;;;-142.34;30.18
12951;BME280;6540;50.858;7.232;2023-04-02T10:58:07;51870.69;;;-142.34;28.17
12951;BME280;6540;50.858;7.232;2023-04-02T11:00:41;51854.53;;;-142.34;28.14
12951;BME280;6540;50.858;7.232;2023-04-02T11:03:15;51862.63;;;-142.34;28.75
12951;BME280;6540;50.858;7.232;2023-04-02T11:05:46;51860.59;;;-142.34;28.92
12951;BME280;6540;50.858;7.232;2023-04-02T11:08:37;51874.72;;;-142.34;28.75
12951;BME280;6540;50.858;7.232;2023-04-02T11:11:58;51842.44;;;-142.34;28.55
12951;BME280;6540;50.858;7.232;2023-04-02T11:14:03;51866.66;;;-142.34;27.88
12951;BME280;6540;50.858;7.232;2023-04-02T11:16:30;51870.69;;;-142.34;28.83
12951;BME280;6540;50.858;7.232;2023-04-02T11:19:29;51866.66;;;-142.34;28.37
12951;BME280;6540;50.858;7.232;2023-04-02T11:29:30;51888.84;;;-142.34;28.87
12951;BME280;6540;50.858;7.232;2023-04-02T11:37:40;51834.38;;;-142.34;27.75
12951;BME280;6540;50.858;7.232;2023-04-02T11:42:40;51868.66;;;-142.34;29.73
12951;BME280;6540;50.858;7.232;2023-04-02T11:50:43;51874.72;;;-142.34;28.92
12951;BME280;6540;50.858;7.232;2023-04-02T11:55:35;51866.66;;;-142.34;28.57
12951;BME280;6540;50.858;7.232;2023-04-02T12:11:46;51884.81;;;-142.34;29.99
12951;BME280;6540;50.858;7.232;2023-04-02T12:14:47;51880.78;;;-142.34;28.23
12951;BME280;6540;50.858;7.232;2023-04-02T12:17:23;51858.56;;;-142.34;27.64
12951;BME280;6540;50.858;7.232;2023-04-02T12:19:55;51876.72;;;-142.34;27.45
12951;BME280;6540;50.858;7.232;2023-04-02T12:22:32;51870.69;;;-142.34;29.73
12951;BME280;6540;50.858;7.232;2023-04-02T12:25:04;51862.63;;;-142.34;27.66
12951;BME280;6540;50.858;7.232;2023-04-02T12:27:30;51886.81;;;-142.34;28.81
12951;BME280;6540;50.858;7.232;2023-04-02T12:30:15;51854.53;;;-142.34;27.33
12951;BME280;6540;50.858;7.232;2023-04-02T12:32:41;51866.66;;;-142.34;29.56
12951;BME280;6540;50.858;7.232;2023-04-02T12:37:54;51852.53;;;-142.34;29.10
12951;BME280;6540;50.858;7.232;2023-04-02T12:40:23;51882.78;;;-142.34;27.22
12951;BME280;6540;50.858;7.232;2023-04-02T12:42:49;51830.34;;;-142.34;27.34
12951;BME280;6540;50.858;7.232;2023-04-02T12:45:31;51844.47;;;-142.34;27.33
12951;BME280;6540;50.858;7.232;2023-04-02T12:47:59;51842.44;;;-142.34;28.14
12951;BME280;6540;50.858;7.232;2023-04-02T12:50:27;51850.50;;;-142.34;27.56
12951;BME280;6540;50.858;7.232;2023-04-02T12:52:53;51846.47;;;-142.34;28.57
12951;BME280;6540;50.858;7.232;2023-04-02T12:55:22;51882.78;;;-142.34;27.81
12951;BME280;6540;50.858;7.232;2023-04-02T12:57:48;51860.59;;;-142.34;28.39
12951;BME280;6540;50.858;7.232;2023-04-02T13:03:14;51834.38;;;-142.34;28.80
12951;BME280;6540;50.858;7.232;2023-04-02T13:05:44;51844.47;;;-142.34;27.46
12951;BME280;6540;50.858;7.232;2023-04-02T13:08:27;51874.72;;;-142.34;28.51
12951;BME280;6540;50.858;7.232;2023-04-02T13:10:58;51830.34;;;-142.34;27.24
12951;BME280;6540;50.858;7.232;2023-04-02T13:13:31;51868.66;;;-142.34;29.79
12951;BME280;6540;50.858;7.232;2023-04-02T13:16:04;51850.50;;;-142.34;29.16
12951;BME280;6540;50.858;7.232;2023-04-02T13:18:31;51836.38;;;-142.34;29.43
12951;BME280;6540;50.858;7.232;2023-04-02T13:21:02;51868.66;;;-142.34;29.01
12951;BME280;6540;50.858;7.232;2023-04-02T13:25:54;51856.56;;;-142.34;31.18
12951;BME280;6540;50.858;7.232;2023-04-02T13:28:20;51840.41;;;-142.34;29.29
12951;BME280;6540;50.858;7.232;2023-04-02T13:30:46;51850.50;;;-142.34;28.19
12951;BME280;6540;50.858;7.232;2023-04-02T13:33:13;51856.56;;;-142.34;28.17
12951;BME280;6540;50.858;7.232;2023-04-02T13:35:39;51898.94;;;-142.34;28.31
12951;BME280;6540;50.858;7.232;2023-04-02T13:38:04;51874.72;;;-142.34;31.40
12951;BME280;6540;50.858;7.232;2023-04-02T13:40:31;51846.47;;;-142.34;31.62
12951;BME280;6540;50.858;7.232;2023-04-02T13:42:57;51917.06;;;-142.34;31.41
12951;BME280;6540;50.858;7.232;2023-04-02T13:45:28;51838.41;;;-142.34;30.59
12951;BME280;6540;50.858;7.232;2023-04-02T13:47:55;51882.78;;;-142.34;30.64
12951;BME280;6540;50.858;7.232;2023-04-02T13:50:27;51858.56;;;-142.34;28.75
12951;BME280;6540;50.858;7.232;2023-04-02T13:52:58;51858.56;;;-142.34;29.85
12951;BME280;6540;50.858;7.232;2023-04-02T13:55:29;51884.81;;;-142.34;29.38
12951;BME280;6540;50.858;7.232;2023-04-02T13:57:56;51890.84;;;-142.34;28.49
12951;BME280;6540;50.858;7.232;2023-04-02T14:00:25;51842.44;;;-142.34;28.63
12951;BME280;6540;50.858;7.232;2023-04-02T14:02:56;51870.69;;;-142.34;28.05
12951;BME280;6540;50.858;7.232;2023-04-02T14:11:02;51870.69;;;-142.34;28.09
12951;BME280;6540;50.858;7.232;2023-04-02T14:14:21;51862.63;;;-142.34;27.48
12951;BME280;6540;50.858;7.232;2023-04-02T14:25:55;51886.81;;;-142.34;29.43
12951;BME280;6540;50.858;7.232;2023-04-02T14:28:30;51866.66;;;-142.34;29.12
12951;BME280;6540;50.858;7.232;2023-04-02T14:36:56;51854.53;;;-142.34;28.34
12951;BME280;6540;50.858;7.232;2023-04-02T14:44:52;51862.63;;;-142.34;28.10
12951;BME280;6540;50.858;7.232;2023-04-02T14:47:26;51858.56;;;-142.34;26.80
12951;BME280;6540;50.858;7.232;2023-04-02T14:49:59;51862.63;;;-142.34;25.90
12951;BME280;6540;50.858;7.232;2023-04-02T14:52:32;51838.41;;;-142.34;26.42
12951;BME280;6540;50.858;7.232;2023-04-02T14:55:04;51850.50;;;-142.34;27.62
12951;BME280;6540;50.858;7.232;2023-04-02T14:57:37;51866.66;;;-142.34;27.29
12951;BME280;6540;50.858;7.232;2023-04-02T15:03:05;51902.97;;;-142.34;28.12
12951;BME280;6540;50.858;7.232;2023-04-02T15:08:02;51846.47;;;-142.34;27.34
12951;BME280;6540;50.858;7.232;2023-04-02T15:10:31;51876.72;;;-142.34;27.49
12951;BME280;6540;50.858;7.232;2023-04-02T15:12:58;51880.78;;;-142.34;27.37
12951;BME280;6540;50.858;7.232;2023-04-02T15:15:39;51874.72;;;-142.34;26.13
12951;BME280;6540;50.858;7.232;2023-04-02T15:18:11;51896.91;;;-142.34;28.30
12951;BME280;6540;50.858;7.232;2023-04-02T15:23:58;51862.63;;;-142.34;26.95
12951;BME280;6540;50.858;7.232;2023-04-02T15:26:50;51882.78;;;-142.34;28.26
12951;BME280;6540;50.858;7.232;2023-04-02T15:31:53;51844.47;;;-142.34;27.47
12951;BME280;6540;50.858;7.232;2023-04-02T15:34:30;51850.50;;;-142.34;26.71
12951;BME280;6540;50.858;7.232;2023-04-02T15:37:07;51878.75;;;-142.34;27.91
12951;BME280;6540;50.858;7.232;2023-04-02T15:42:22;51878.75;;;-142.34;27.84
12951;BME280;6540;50.858;7.232;2023-04-02T15:47:35;51840.41;;;-142.34;29.40
12951;BME280;6540;50.858;7.232;2023-04-02T15:55:49;51870.69;;;-142.34;28.92
12951;BME280;6540;50.858;7.232;2023-04-02T16:01:35;51892.88;;;-142.34;29.76
12951;BME280;6540;50.858;7.232;2023-04-02T16:07:28;51862.63;;;-142.34;28.90
12951;BME280;6540;50.858;7.232;2023-04-02T16:12:32;51868.66;;;-142.34;29.12
12951;BME280;6540;50.858;7.232;2023-04-02T16:15:10;51898.94;;;-142.34;28.30
12951;BME280;6540;50.858;7.232;2023-04-02T16:17:53;51898.94;;;-142.34;28.89
12951;BME280;6540;50.858;7.232;2023-04-02T16:20:23;51886.81;;;-142.34;27.34
12951;BME280;6540;50.858;7.232;2023-04-02T16:23:04;51878.75;;;-142.34;28.11
12951;BME280;6540;50.858;7.232;2023-04-02T16:25:40;51878.75;;;-142.34;28.24
12951;BME280;6540;50.858;7.232;2023-04-02T16:28:17;51923.13;;;-142.34;28.87
12951;BME280;6540;50.858;7.232;2023-04-02T16:31:10;51902.97;;;-142.34;27.41
12951;BME280;6540;50.858;7.232;2023-04-02T16:33:47;51872.69;;;-142.34;27.72
12951;BME280;6540;50.858;7.232;2023-04-02T16:39:40;51894.88;;;-142.34;26.60
12951;BME280;6540;50.858;7.232;2023-04-02T16:50:29;51913.03;;;-142.34;28.35